Date,TemperatureHighF,TemperatureAvgF,TemperatureLowF,DewpointHighF,DewpointAvgF,DewpointLowF,HumidityHigh,HumidityAvg,HumidityLow,PressureMaxIn,PressureMinIn,WindSpeedMaxMPH,WindSpeedAvgMPH,GustSpeedMaxMPH,PrecipitationSumIn
2012-10-7,48.9,47.4,46.9,48.2,47.1,46.7,99,99,97,30.20,30.18,6,2,8,0.00
2012-10-8,71.2,55.0,41.0,50.8,46.5,40.7,99,77,45,30.22,30.05,9,2,10,0.00
2012-10-9,78.3,61.1,46.2,66.1,57.0,45.4,99,87,65,30.05,29.86,11,4,16,0.00
2012-10-10,77.7,66.5,61.7,72.1,63.6,61.1,99,90,76,30.11,29.94,5,2,8,0.00
2012-10-11,86.4,73.4,64.4,74.1,68.8,62.8,98,86,65,30.14,30.03,14,3,14,0.00
2012-10-12,90.0,76.1,68.7,74.4,70.6,67.6,99,84,57,30.17,30.06,9,3,13,0.00
2012-10-13,88.0,77.0,69.8,72.2,69.3,66.7,95,79,52,30.07,29.81,18,6,20,0.00
2012-10-14,84.7,73.4,61.2,71.7,63.7,56.0,99,75,45,30.04,29.85,17,4,21,1.04
2012-10-15,89.2,68.2,53.1,63.2,55.7,52.2,99,70,31,30.07,29.95,6,1,8,0.00
2012-10-16,73.8,63.2,55.9,61.5,57.8,53.6,98,83,65,29.96,29.68,11,4,14,0.00
2012-10-17,90.1,72.4,61.0,72.2,63.7,54.4,98,76,44,29.75,29.51,16,7,23,0.00
2012-10-18,81.9,64.8,50.5,54.2,42.9,32.2,77,49,19,29.95,29.75,11,3,16,0.00
2012-10-19,79.7,62.8,49.8,45.1,40.1,35.0,75,47,21,29.98,29.85,14,4,17,0.00
2012-10-20,87.3,68.1,47.8,69.6,57.3,42.6,91,70,52,29.88,29.73,15,4,16,0.00
2012-10-21,90.3,78.6,71.4,73.9,70.3,63.7,91,77,56,29.89,29.77,15,6,16,0.00
2012-10-22,88.9,76.5,71.4,74.1,70.2,66.6,92,81,58,29.98,29.88,11,5,13,0.00
2012-10-23,87.1,75.3,67.5,72.0,67.9,64.5,98,79,56,29.97,29.88,13,4,16,0.00
2012-10-24,88.2,74.5,64.9,71.5,67.3,63.7,99,80,52,29.98,29.83,14,4,15,0.00
2012-10-25,87.6,71.6,54.3,72.6,64.9,48.6,94,81,54,30.00,29.80,20,7,21,0.00
2012-10-26,55.2,50.3,44.6,49.2,44.6,37.8,99,81,68,30.24,29.74,16,8,18,0.15
2012-10-27,61.7,47.1,35.4,41.1,37.8,33.8,97,73,44,30.26,29.63,11,4,11,0.00
2012-10-28,68.2,47.8,33.4,43.5,34.9,30.8,99,67,27,30.24,29.67,9,2,11,0.00
2012-10-29,74.1,51.4,34.7,41.6,37.4,32.1,96,65,27,30.27,29.63,7,1,7,0.00
2012-10-30,79.2,57.5,39.9,49.6,44.6,39.7,99,68,34,30.09,29.46,8,2,8,0.00
2012-10-31,83.3,65.0,51.8,59.0,52.6,47.1,85,67,37,29.97,29.44,8,3,8,0.00
2012-11-1,91.4,67.5,46.0,62.7,55.6,45.2,99,70,34,30.02,29.43,4,2,4,0.00
2012-11-2,88.7,73.0,63.3,64.8,60.3,57.0,87,67,39,29.98,29.42,11,3,11,0.00
2012-11-3,86.5,71.8,60.8,71.4,64.5,60.2,98,80,54,30.06,29.47,8,3,8,0.01
2012-11-4,79.3,62.6,50.2,62.5,57.2,49.9,99,84,54,30.09,29.53,7,2,7,0.01
2012-11-5,76.1,61.0,50.5,60.9,51.3,37.3,99,75,36,30.05,29.48,14,4,14,0.00
2012-11-6,76.5,56.4,42.1,48.1,44.3,40.3,94,67,35,30.12,30.00,8,2,9,0.00
2012-11-7,82.0,59.3,42.8,49.1,43.9,39.6,98,62,23,30.16,30.05,8,2,8,0.00
2012-11-8,81.0,63.5,44.2,58.4,51.3,41.9,93,67,45,30.12,29.97,12,5,14,0.00
2012-11-9,84.2,69.5,57.6,65.3,60.0,56.9,99,74,48,30.05,29.92,15,6,22,0.00
2012-11-10,81.3,70.5,60.1,64.3,61.0,59.2,99,74,51,30.01,29.85,18,7,24,0.00
2012-11-11,76.8,65.6,46.9,70.8,59.4,41.7,98,80,63,30.20,29.79,20,7,21,1.26
2012-11-12,63.1,45.1,34.0,41.7,32.1,26.9,89,64,26,30.44,30.19,14,4,14,0.00
2012-11-13,63.3,45.5,30.2,41.2,32.9,26.8,95,66,26,30.47,30.31,11,2,13,0.00
2012-11-14,66.4,49.6,35.4,42.9,35.2,28.0,99,62,25,30.40,30.25,10,1,10,0.00
2012-11-15,65.8,47.3,34.0,42.4,35.8,31.1,93,68,32,30.31,30.20,7,2,8,0.00
2012-11-16,69.8,50.2,32.4,43.4,35.4,32.1,99,62,29,30.37,30.27,11,2,11,0.00
2012-11-17,74.5,50.0,31.3,44.1,36.1,28.0,97,64,24,30.37,30.25,6,2,8,0.00
2012-11-18,74.7,53.7,37.6,46.0,40.0,36.5,96,65,28,30.27,30.16,10,3,11,0.00
2012-11-19,74.3,57.7,54.9,54.5,45.1,42.1,73,63,50,30.19,30.09,5,2,8,0.00
2012-11-20,86.4,65.2,52.0,61.8,53.7,46.5,97,68,43,30.17,30.07,6,2,7,0.00
2012-11-21,85.1,63.1,47.7,60.5,50.7,41.1,99,69,24,30.25,30.10,9,2,11,0.00
2012-11-22,79.7,62.4,50.9,57.3,51.7,47.1,88,70,35,30.11,30.00,14,3,17,0.00
2012-11-23,70.5,57.7,41.5,56.5,40.1,27.0,94,57,22,30.37,30.07,17,6,24,0.00
2012-11-24,70.2,45.8,28.8,33.6,27.6,22.9,80,53,19,30.37,30.09,7,2,8,0.00
2012-11-25,77.4,56.2,37.8,55.2,43.7,31.4,86,65,39,30.09,29.85,15,4,15,0.00
2012-11-26,83.8,65.9,48.6,64.7,56.9,40.7,94,75,48,30.15,29.85,24,7,24,0.00
2012-11-27,64.8,49.8,38.3,45.7,41.1,36.0,94,73,47,30.36,30.15,14,5,17,0.00
2012-11-28,68.2,48.3,33.3,43.9,37.5,32.9,99,70,34,30.41,30.24,9,3,11,0.00
2012-11-29,72.7,52.2,37.0,48.1,42.3,34.7,99,72,34,30.24,30.08,10,3,11,0.00
2012-11-30,77.4,59.8,49.3,63.4,56.6,47.9,99,90,62,30.15,30.00,11,4,12,0.00
2012-12-1,82.8,71.8,63.3,66.7,63.7,61.1,93,77,54,30.05,29.92,16,6,17,0.00
2012-12-2,84.2,71.3,63.5,66.9,63.1,58.3,94,77,51,30.10,29.99,14,5,16,0.00
2012-12-3,82.9,71.2,62.2,66.2,61.9,57.8,93,74,47,30.00,29.89,14,5,17,0.00
2012-12-4,77.9,66.0,52.2,65.1,55.0,32.7,95,70,36,30.19,29.96,15,5,17,0.00
2012-12-5,64.8,53.8,45.0,50.9,44.6,36.2,98,72,52,30.21,30.00,9,3,11,0.00
2012-12-6,72.9,57.7,44.6,56.9,52.4,43.8,99,84,52,30.00,29.78,14,4,14,0.00
2012-12-7,71.6,62.9,55.4,61.4,58.6,54.0,99,86,69,29.84,29.76,14,4,14,0.00
2012-12-8,70.3,61.5,53.1,62.7,56.9,49.6,99,85,67,29.88,29.75,6,2,8,0.00
2012-12-9,77.4,65.2,44.6,67.1,58.0,29.0,99,78,54,29.95,29.73,19,8,22,0.00
2012-12-10,46.0,36.7,27.1,29.0,21.5,15.6,69,54,41,30.09,29.92,26,9,26,0.05
2012-12-11,57.6,36.0,23.2,28.8,19.4,14.2,77,53,24,30.19,30.05,10,2,10,0.00
2012-12-12,62.4,42.4,22.8,30.9,20.7,15.7,84,46,20,30.30,30.17,10,2,10,0.00
2012-12-13,67.6,46.1,27.9,33.3,26.0,18.8,75,48,23,30.29,30.15,10,4,12,0.00
2012-12-14,59.2,48.5,40.3,47.4,35.2,29.0,68,60,48,30.16,29.93,13,4,13,0.00
2012-12-15,76.6,63.8,57.0,60.7,49.4,39.2,99,65,26,29.88,29.78,11,3,11,0.41
2012-12-16,72.7,57.9,52.3,52.9,47.5,43.9,90,69,39,29.80,29.65,6,2,6,0.02
2012-12-17,63.3,52.3,42.8,49.9,41.5,37.7,89,68,42,29.85,29.69,11,4,11,0.00
2012-12-18,82.2,62.4,39.2,53.2,42.7,35.8,95,53,22,29.83,29.73,12,3,12,0.00
2012-12-19,78.8,69.9,58.8,65.6,61.2,39.2,94,75,46,29.76,29.54,22,9,32,0.30
2012-12-20,60.3,44.9,32.7,39.8,22.6,9.3,64,43,22,30.35,29.72,28,11,34,0.00
2012-12-21,71.8,49.4,30.6,27.2,20.6,14.5,55,35,14,30.42,30.27,9,2,11,0.00
2012-12-22,70.9,53.7,33.6,49.5,34.5,19.5,72,49,29,30.28,30.00,15,4,21,0.00
2012-12-23,70.0,60.6,47.1,59.3,49.6,32.7,86,68,46,30.00,29.77,14,6,17,0.00
2012-12-24,61.0,45.0,32.9,36.3,31.7,27.1,80,61,37,29.98,29.82,9,4,11,0.34
2012-12-25,49.6,36.4,28.2,48.4,35.6,27.0,99,97,69,30.02,29.51,28,6,32,1.56
2012-12-26,33.8,27.7,23.5,27.0,21.6,16.7,95,78,66,30.21,30.02,12,2,17,0.02
2012-12-27,42.1,32.7,22.3,39.8,30.2,20.3,99,91,77,30.10,29.85,11,4,11,0.09
2012-12-28,40.8,37.9,29.7,40.4,35.4,24.8,99,91,74,30.15,29.81,19,7,22,0.09
2012-12-29,46.9,34.0,27.3,26.1,20.7,13.5,83,59,41,30.40,30.15,13,5,14,0.00
2012-12-30,51.1,37.6,24.8,30.2,25.0,21.0,86,63,36,30.43,30.20,11,4,12,0.00
2012-12-31,50.2,45.2,41.5,49.9,41.3,29.4,99,87,60,30.21,29.92,12,5,16,0.57
2013-1-1,45.7,42.2,35.1,44.2,39.3,30.4,98,90,77,30.21,29.98,17,7,17,0.02